Flint, Texas
Current Conditions -  °F | °C
As of 6:01 PM on Friday 21 Nov 2014 (Local Time) from KTYR Reporting Station
Overcast Overcast  
Wind Chill: 63°   Ceiling: 2600
Heat Index: 63°   Visibility: 10mi
Dew Point: 58°   Wind: 14mph
Humidity: 84%   Direction: 150°SSE
Pressure: 30.12"   Gusts: 23mph
Location:  32.2°N, 95.35°W
Report Text: KTYR 220001Z 15012G20KT 10SM SCT009 SCT014 OVC026 17/14 A3012 RMK AO2 T01720144
Loading
Personal Weather Stations






























Interactive Weather Map New forecast layout! Learn more

10-Day Weather Forecast

Advertisements
Track Severe Weather on mobile